sensor_id;sensor_type;location;lat;lon;timestamp;pressure;altitude;pressure_sealevel;temperature;humidity
12763;BME280;6445;52.490;13.378;2023-04-01T00:00:49;-12695.97;;;-146.10;100.00
12763;BME280;6445;52.490;13.378;2023-04-01T00:03:15;-12695.97;;;-146.10;100.00
12763;BME280;6445;52.490;13.378;2023-04-01T00:05:41;-12695.97;;;-146.10;100.00
12763;BME280;6445;52.490;13.378;2023-04-01T00:08:06;-12695.97;;;-146.10;100.00
12763;BME280;6445;52.490;13.378;2023-04-01T00:10:31;-12695.97;;;-146.10;100.00
12763;BME280;6445;52.490;13.378;2023-04-01T00:12:57;-12695.97;;;-146.10;100.00
12763;BME280;6445;52.490;13.378;2023-04-01T00:15:22;-12695.97;;;-146.10;100.00
12763;BME280;6445;52.490;13.378;2023-04-01T00:17:47;-12695.97;;;-146.10;100.00
12763;BME280;6445;52.490;13.378;2023-04-01T00:20:13;-12695.97;;;-146.10;100.00
12763;BME280;6445;52.490;13.378;2023-04-01T00:22:39;-12695.97;;;-146.10;100.00
12763;BME280;6445;52.490;13.378;2023-04-01T00:25:05;-12695.97;;;-146.10;100.00
12763;BME280;6445;52.490;13.378;2023-04-01T00:27:30;-12695.97;;;-146.10;100.00
12763;BME280;6445;52.490;13.378;2023-04-01T00:29:55;-12695.97;;;-146.10;100.00
12763;BME280;6445;52.490;13.378;2023-04-01T00:32:21;-12695.97;;;-146.10;100.00
12763;BME280;6445;52.490;13.378;2023-04-01T00:34:50;-12695.97;;;-146.10;100.00
12763;BME280;6445;52.490;13.378;2023-04-01T00:37:16;-12695.97;;;-146.10;100.00
12763;BME280;6445;52.490;13.378;2023-04-01T00:39:41;-12695.97;;;-146.10;100.00
12763;BME280;6445;52.490;13.378;2023-04-01T00:42:09;-12695.97;;;-146.10;100.00
12763;BME280;6445;52.490;13.378;2023-04-01T00:44:37;-12695.97;;;-146.10;100.00
12763;BME280;6445;52.490;13.378;2023-04-01T00:47:03;-12695.97;;;-146.10;100.00
12763;BME280;6445;52.490;13.378;2023-04-01T00:49:40;-12695.97;;;-146.10;100.00
12763;BME280;6445;52.490;13.378;2023-04-01T00:52:08;-12695.97;;;-146.10;100.00
12763;BME280;6445;52.490;13.378;2023-04-01T00:54:36;-12695.97;;;-146.10;100.00
12763;BME280;6445;52.490;13.378;2023-04-01T00:57:19;-12695.97;;;-146.10;100.00
12763;BME280;6445;52.490;13.378;2023-04-01T00:59:48;-12695.97;;;-146.10;100.00
12763;BME280;6445;52.490;13.378;2023-04-01T01:02:15;-12695.97;;;-146.10;100.00
12763;BME280;6445;52.490;13.378;2023-04-01T01:04:41;-12695.97;;;-146.10;100.00
12763;BME280;6445;52.490;13.378;2023-04-01T01:10:01;-12695.97;;;-146.10;100.00
12763;BME280;6445;52.490;13.378;2023-04-01T01:12:45;-12695.97;;;-146.10;100.00
12763;BME280;6445;52.490;13.378;2023-04-01T01:15:23;-12695.97;;;-146.10;100.00
12763;BME280;6445;52.490;13.378;2023-04-01T01:18:17;-12695.97;;;-146.10;100.00
12763;BME280;6445;52.490;13.378;2023-04-01T01:21:04;-12695.97;;;-146.10;100.00
12763;BME280;6445;52.490;13.378;2023-04-01T01:37:40;-12695.97;;;-146.10;100.00
12763;BME280;6445;52.490;13.378;2023-04-01T01:40:10;-12695.97;;;-146.10;100.00
12763;BME280;6445;52.490;13.378;2023-04-01T01:42:38;-12695.97;;;-146.10;100.00
12763;BME280;6445;52.490;13.378;2023-04-01T01:45:06;-12695.97;;;-146.10;100.00
12763;BME280;6445;52.490;13.378;2023-04-01T01:47:34;-12695.97;;;-146.10;100.00
12763;BME280;6445;52.490;13.378;2023-04-01T01:50:01;-12695.97;;;-146.10;100.00
12763;BME280;6445;52.490;13.378;2023-04-01T01:52:29;-12695.97;;;-146.10;100.00
12763;BME280;6445;52.490;13.378;2023-04-01T01:54:56;-12695.97;;;-146.10;100.00
12763;BME280;6445;52.490;13.378;2023-04-01T01:57:30;-12695.97;;;-146.10;100.00
12763;BME280;6445;52.490;13.378;2023-04-01T02:00:00;-12695.97;;;-146.10;100.00
12763;BME280;6445;52.490;13.378;2023-04-01T02:02:28;-12695.97;;;-146.10;100.00
12763;BME280;6445;52.490;13.378;2023-04-01T02:04:56;-12695.97;;;-146.10;100.00
12763;BME280;6445;52.490;13.378;2023-04-01T02:07:25;-12695.97;;;-146.10;100.00
12763;BME280;6445;52.490;13.378;2023-04-01T02:09:52;-12695.97;;;-146.10;100.00
12763;BME280;6445;52.490;13.378;2023-04-01T02:12:19;-12695.97;;;-146.10;100.00
12763;BME280;6445;52.490;13.378;2023-04-01T02:14:52;-12695.97;;;-146.10;100.00
12763;BME280;6445;52.490;13.378;2023-04-01T02:17:23;-12695.97;;;-146.10;100.00
12763;BME280;6445;52.490;13.378;2023-04-01T02:19:58;-12695.97;;;-146.10;100.00
12763;BME280;6445;52.490;13.378;2023-04-01T02:22:29;-12695.97;;;-146.10;100.00
12763;BME280;6445;52.490;13.378;2023-04-01T02:25:04;-12695.97;;;-146.10;100.00
12763;BME280;6445;52.490;13.378;2023-04-01T02:27:31;-12695.97;;;-146.10;100.00
12763;BME280;6445;52.490;13.378;2023-04-01T02:29:57;-12695.97;;;-146.10;100.00
12763;BME280;6445;52.490;13.378;2023-04-01T02:32:23;-12695.97;;;-146.10;100.00
12763;BME280;6445;52.490;13.378;2023-04-01T02:34:50;-12695.97;;;-146.10;100.00
12763;BME280;6445;52.490;13.378;2023-04-01T02:37:15;-12695.97;;;-146.10;100.00
12763;BME280;6445;52.490;13.378;2023-04-01T02:39:41;-12695.97;;;-146.10;100.00
12763;BME280;6445;52.490;13.378;2023-04-01T02:42:07;-12695.97;;;-146.10;100.00
12763;BME280;6445;52.490;13.378;2023-04-01T02:44:33;-12695.97;;;-146.10;100.00
12763;BME280;6445;52.490;13.378;2023-04-01T02:46:58;-12695.97;;;-146.10;100.00
12763;BME280;6445;52.490;13.378;2023-04-01T02:49:23;-12695.97;;;-146.10;100.00
12763;BME280;6445;52.490;13.378;2023-04-01T02:51:49;-12695.97;;;-146.10;100.00
12763;BME280;6445;52.490;13.378;2023-04-01T02:54:14;-12695.97;;;-146.10;100.00
12763;BME280;6445;52.490;13.378;2023-04-01T02:56:39;-12695.97;;;-146.10;100.00
12763;BME280;6445;52.490;13.378;2023-04-01T02:59:05;-12695.97;;;-146.10;100.00
12763;BME280;6445;52.490;13.378;2023-04-01T03:01:30;-12695.97;;;-146.10;100.00
12763;BME280;6445;52.490;13.378;2023-04-01T03:03:55;-12695.97;;;-146.10;100.00
12763;BME280;6445;52.490;13.378;2023-04-01T03:06:21;-12695.97;;;-146.10;100.00
12763;BME280;6445;52.490;13.378;2023-04-01T03:08:46;-12695.97;;;-146.10;100.00
12763;BME280;6445;52.490;13.378;2023-04-01T03:11:12;-12695.97;;;-146.10;100.00
12763;BME280;6445;52.490;13.378;2023-04-01T03:13:37;-12695.97;;;-146.10;100.00
12763;BME280;6445;52.490;13.378;2023-04-01T03:16:03;-12695.97;;;-146.10;100.00
12763;BME280;6445;52.490;13.378;2023-04-01T03:18:28;-12695.97;;;-146.10;100.00
12763;BME280;6445;52.490;13.378;2023-04-01T03:20:53;-12695.97;;;-146.10;100.00
12763;BME280;6445;52.490;13.378;2023-04-01T03:23:18;-12695.97;;;-146.10;100.00
12763;BME280;6445;52.490;13.378;2023-04-01T03:25:47;-12695.97;;;-146.10;100.00
12763;BME280;6445;52.490;13.378;2023-04-01T03:28:12;-12695.97;;;-146.10;100.00
12763;BME280;6445;52.490;13.378;2023-04-01T03:30:38;-12695.97;;;-146.10;100.00
12763;BME280;6445;52.490;13.378;2023-04-01T03:33:04;-12695.97;;;-146.10;100.00
12763;BME280;6445;52.490;13.378;2023-04-01T03:35:30;-12695.97;;;-146.10;100.00
12763;BME280;6445;52.490;13.378;2023-04-01T03:37:56;-12695.97;;;-146.10;100.00
12763;BME280;6445;52.490;13.378;2023-04-01T03:40:21;-12695.97;;;-146.10;100.00
12763;BME280;6445;52.490;13.378;2023-04-01T03:42:47;-12695.97;;;-146.10;100.00
12763;BME280;6445;52.490;13.378;2023-04-01T03:45:12;-12695.97;;;-146.10;100.00
12763;BME280;6445;52.490;13.378;2023-04-01T03:47:38;-12695.97;;;-146.10;100.00
12763;BME280;6445;52.490;13.378;2023-04-01T03:50:05;-12695.97;;;-146.10;100.00
12763;BME280;6445;52.490;13.378;2023-04-01T03:52:30;-12695.97;;;-146.10;100.00
12763;BME280;6445;52.490;13.378;2023-04-01T03:54:56;-12695.97;;;-146.10;100.00
12763;BME280;6445;52.490;13.378;2023-04-01T03:57:21;-12695.97;;;-146.10;100.00
12763;BME280;6445;52.490;13.378;2023-04-01T03:59:46;-12695.97;;;-146.10;100.00
12763;BME280;6445;52.490;13.378;2023-04-01T04:02:11;-12695.97;;;-146.10;100.00
12763;BME280;6445;52.490;13.378;2023-04-01T04:04:37;-12695.97;;;-146.10;100.00
12763;BME280;6445;52.490;13.378;2023-04-01T04:07:02;-12695.97;;;-146.10;100.00
12763;BME280;6445;52.490;13.378;2023-04-01T04:09:30;-12695.97;;;-146.10;100.00
12763;BME280;6445;52.490;13.378;2023-04-01T04:11:55;-12695.97;;;-146.10;100.00
12763;BME280;6445;52.490;13.378;2023-04-01T04:14:20;-12695.97;;;-146.10;100.00
12763;BME280;6445;52.490;13.378;2023-04-01T04:16:45;-12695.97;;;-146.10;100.00
12763;BME280;6445;52.490;13.378;2023-04-01T04:19:11;-12695.97;;;-146.10;100.00
12763;BME280;6445;52.490;13.378;2023-04-01T04:21:36;-12695.97;;;-146.10;100.00
12763;BME280;6445;52.490;13.378;2023-04-01T04:24:02;-12695.97;;;-146.10;100.00
12763;BME280;6445;52.490;13.378;2023-04-01T04:26:27;-12695.97;;;-146.10;100.00
12763;BME280;6445;52.490;13.378;2023-04-01T04:28:54;-12695.97;;;-146.10;100.00
12763;BME280;6445;52.490;13.378;2023-04-01T04:31:24;-12695.97;;;-146.10;100.00
12763;BME280;6445;52.490;13.378;2023-04-01T04:33:50;-12695.97;;;-146.10;100.00
12763;BME280;6445;52.490;13.378;2023-04-01T04:36:16;-12695.97;;;-146.10;100.00
12763;BME280;6445;52.490;13.378;2023-04-01T04:38:41;-12695.97;;;-146.10;100.00
12763;BME280;6445;52.490;13.378;2023-04-01T04:41:11;-12695.97;;;-146.10;100.00
12763;BME280;6445;52.490;13.378;2023-04-01T04:43:38;-12695.97;;;-146.10;100.00
12763;BME280;6445;52.490;13.378;2023-04-01T04:46:07;-12695.97;;;-146.10;100.00
12763;BME280;6445;52.490;13.378;2023-04-01T04:48:33;-12695.97;;;-146.10;100.00
12763;BME280;6445;52.490;13.378;2023-04-01T04:50:58;-12695.97;;;-146.10;100.00
12763;BME280;6445;52.490;13.378;2023-04-01T04:53:23;-12695.97;;;-146.10;100.00
12763;BME280;6445;52.490;13.378;2023-04-01T04:55:50;-12695.97;;;-146.10;100.00
12763;BME280;6445;52.490;13.378;2023-04-01T04:58:16;-12695.97;;;-146.10;100.00
12763;BME280;6445;52.490;13.378;2023-04-01T05:00:41;-12695.97;;;-146.10;100.00
12763;BME280;6445;52.490;13.378;2023-04-01T05:03:07;-12695.97;;;-146.10;100.00
12763;BME280;6445;52.490;13.378;2023-04-01T05:05:33;-12695.97;;;-146.10;100.00
12763;BME280;6445;52.490;13.378;2023-04-01T05:07:58;-12695.97;;;-146.10;100.00
12763;BME280;6445;52.490;13.378;2023-04-01T05:10:23;-12695.97;;;-146.10;100.00
12763;BME280;6445;52.490;13.378;2023-04-01T05:12:48;-12695.97;;;-146.10;100.00
12763;BME280;6445;52.490;13.378;2023-04-01T05:15:14;-12695.97;;;-146.10;100.00
12763;BME280;6445;52.490;13.378;2023-04-01T05:17:40;-12695.97;;;-146.10;100.00
12763;BME280;6445;52.490;13.378;2023-04-01T05:20:06;-12695.97;;;-146.10;100.00
12763;BME280;6445;52.490;13.378;2023-04-01T05:22:31;-12695.97;;;-146.10;100.00
12763;BME280;6445;52.490;13.378;2023-04-01T05:24:57;-12695.97;;;-146.10;100.00
12763;BME280;6445;52.490;13.378;2023-04-01T05:27:22;-12695.97;;;-146.10;100.00
12763;BME280;6445;52.490;13.378;2023-04-01T05:29:47;-12695.97;;;-146.10;100.00
12763;BME280;6445;52.490;13.378;2023-04-01T05:32:12;-12695.97;;;-146.10;100.00
12763;BME280;6445;52.490;13.378;2023-04-01T05:34:38;-12695.97;;;-146.10;100.00
12763;BME280;6445;52.490;13.378;2023-04-01T05:37:03;-12695.97;;;-146.10;100.00
12763;BME280;6445;52.490;13.378;2023-04-01T05:39:28;-12695.97;;;-146.10;100.00
12763;BME280;6445;52.490;13.378;2023-04-01T05:41:54;-12695.97;;;-146.10;100.00
12763;BME280;6445;52.490;13.378;2023-04-01T05:44:19;-12695.97;;;-146.10;100.00
12763;BME280;6445;52.490;13.378;2023-04-01T05:46:44;-12695.97;;;-146.10;100.00
12763;BME280;6445;52.490;13.378;2023-04-01T05:49:10;-12695.97;;;-146.10;100.00
12763;BME280;6445;52.490;13.378;2023-04-01T05:51:35;-12695.97;;;-146.10;100.00
12763;BME280;6445;52.490;13.378;2023-04-01T05:54:00;-12695.97;;;-146.10;100.00
12763;BME280;6445;52.490;13.378;2023-04-01T05:56:25;-12695.97;;;-146.10;100.00
12763;BME280;6445;52.490;13.378;2023-04-01T05:58:52;-12695.97;;;-146.10;100.00
12763;BME280;6445;52.490;13.378;2023-04-01T06:01:18;-12695.97;;;-146.10;100.00
12763;BME280;6445;52.490;13.378;2023-04-01T06:03:44;-12695.97;;;-146.10;100.00
12763;BME280;6445;52.490;13.378;2023-04-01T06:06:13;-12695.97;;;-146.10;100.00
12763;BME280;6445;52.490;13.378;2023-04-01T06:08:40;-12695.97;;;-146.10;100.00
12763;BME280;6445;52.490;13.378;2023-04-01T06:11:31;-12695.97;;;-146.10;100.00
12763;BME280;6445;52.490;13.378;2023-04-01T06:14:23;-12695.97;;;-146.10;100.00
12763;BME280;6445;52.490;13.378;2023-04-01T06:17:04;-12695.97;;;-146.10;100.00
12763;BME280;6445;52.490;13.378;2023-04-01T06:19:39;-12695.97;;;-146.10;100.00
12763;BME280;6445;52.490;13.378;2023-04-01T06:25:18;-12695.97;;;-146.10;100.00
12763;BME280;6445;52.490;13.378;2023-04-01T06:28:00;-12695.97;;;-146.10;100.00
12763;BME280;6445;52.490;13.378;2023-04-01T06:30:45;-12695.97;;;-146.10;100.00
12763;BME280;6445;52.490;13.378;2023-04-01T06:33:16;-12695.97;;;-146.10;100.00
12763;BME280;6445;52.490;13.378;2023-04-01T06:35:53;-12695.97;;;-146.10;100.00
12763;BME280;6445;52.490;13.378;2023-04-01T06:38:38;-12695.97;;;-146.10;100.00
12763;BME280;6445;52.490;13.378;2023-04-01T06:41:44;-12695.97;;;-146.10;100.00
12763;BME280;6445;52.490;13.378;2023-04-01T06:46:48;-12695.97;;;-146.10;100.00
12763;BME280;6445;52.490;13.378;2023-04-01T06:49:44;-12695.97;;;-146.10;100.00
12763;BME280;6445;52.490;13.378;2023-04-01T06:52:33;-12695.97;;;-146.10;100.00
12763;BME280;6445;52.490;13.378;2023-04-01T06:55:17;-12695.97;;;-146.10;100.00
12763;BME280;6445;52.490;13.378;2023-04-01T06:57:50;-12695.97;;;-146.10;100.00
12763;BME280;6445;52.490;13.378;2023-04-01T07:00:27;-12695.97;;;-146.10;100.00
12763;BME280;6445;52.490;13.378;2023-04-01T07:05:39;-12695.97;;;-146.10;100.00
12763;BME280;6445;52.490;13.378;2023-04-01T07:08:09;-12695.97;;;-146.10;100.00
12763;BME280;6445;52.490;13.378;2023-04-01T07:10:44;-12695.97;;;-146.10;100.00
12763;BME280;6445;52.490;13.378;2023-04-01T07:13:29;-12695.97;;;-146.10;100.00
12763;BME280;6445;52.490;13.378;2023-04-01T07:16:12;-12695.97;;;-146.10;100.00
12763;BME280;6445;52.490;13.378;2023-04-01T07:18:50;-12695.97;;;-146.10;100.00
12763;BME280;6445;52.490;13.378;2023-04-01T07:21:27;-12695.97;;;-146.10;100.00
12763;BME280;6445;52.490;13.378;2023-04-01T07:23:57;-12695.97;;;-146.10;100.00
12763;BME280;6445;52.490;13.378;2023-04-01T07:26:25;-12695.97;;;-146.10;100.00
12763;BME280;6445;52.490;13.378;2023-04-01T07:28:52;-12695.97;;;-146.10;100.00
12763;BME280;6445;52.490;13.378;2023-04-01T07:31:48;-12695.97;;;-146.10;100.00
12763;BME280;6445;52.490;13.378;2023-04-01T07:34:28;-12695.97;;;-146.10;100.00
12763;BME280;6445;52.490;13.378;2023-04-01T07:37:05;-12695.97;;;-146.10;100.00
12763;BME280;6445;52.490;13.378;2023-04-01T07:39:54;-12695.97;;;-146.10;100.00
12763;BME280;6445;52.490;13.378;2023-04-01T07:42:44;-12695.97;;;-146.10;100.00
12763;BME280;6445;52.490;13.378;2023-04-01T07:45:31;-12695.97;;;-146.10;100.00
12763;BME280;6445;52.490;13.378;2023-04-01T07:50:35;-12695.97;;;-146.10;100.00
12763;BME280;6445;52.490;13.378;2023-04-01T07:53:15;-12695.97;;;-146.10;100.00
12763;BME280;6445;52.490;13.378;2023-04-01T07:55:54;-12190.78;;;-146.10;100.00
12763;BME280;6445;52.490;13.378;2023-04-01T07:58:31;-9923.22;;;-146.10;100.00
12763;BME280;6445;52.490;13.378;2023-04-01T08:01:13;-6393.25;;;-146.10;100.00
12763;BME280;6445;52.490;13.378;2023-04-01T08:03:51;-839.59;;;-146.10;100.00
12763;BME280;6445;52.490;13.378;2023-04-01T08:06:37;8012.28;;;-146.10;100.00
12763;BME280;6445;52.490;13.378;2023-04-01T08:09:17;10038.41;;;-146.10;100.00
12763;BME280;6445;52.490;13.378;2023-04-01T08:11:58;14601.09;;;-146.10;100.00
12763;BME280;6445;52.490;13.378;2023-04-01T08:14:32;7759.09;;;-146.10;100.00
12763;BME280;6445;52.490;13.378;2023-04-01T08:17:05;3457.34;;;-146.10;100.00
12763;BME280;6445;52.490;13.378;2023-04-01T08:19:48;3107.66;;;-146.10;100.00
12763;BME280;6445;52.490;13.378;2023-04-01T08:22:38;3293.34;;;-146.10;100.00
12763;BME280;6445;52.490;13.378;2023-04-01T08:25:06;4644.97;;;-146.10;100.00
12763;BME280;6445;52.490;13.378;2023-04-01T08:27:39;6975.88;;;-146.10;100.00
12763;BME280;6445;52.490;13.378;2023-04-01T08:30:21;10291.75;;;-146.10;100.00
12763;BME280;6445;52.490;13.378;2023-04-01T08:33:15;5156.91;;;-146.10;100.00
12763;BME280;6445;52.490;13.378;2023-04-01T08:36:11;4929.59;;;-146.10;100.00
12763;BME280;6445;52.490;13.378;2023-04-01T08:38:50;5251.78;;;-146.10;100.00
12763;BME280;6445;52.490;13.378;2023-04-01T08:41:28;5241.91;;;-146.10;100.00
12763;BME280;6445;52.490;13.378;2023-04-01T08:44:15;-239.59;;;-146.10;100.00
12763;BME280;6445;52.490;13.378;2023-04-01T08:46:57;-2877.78;;;-146.10;100.00
12763;BME280;6445;52.490;13.378;2023-04-01T08:50:07;-3311.72;;;-146.10;100.00
12763;BME280;6445;52.490;13.378;2023-04-01T08:55:31;-4995.75;;;-146.10;100.00
12763;BME280;6445;52.490;13.378;2023-04-01T08:58:22;-3080.97;;;-146.10;100.00
12763;BME280;6445;52.490;13.378;2023-04-01T09:01:13;-2950.78;;;-146.10;100.00
12763;BME280;6445;52.490;13.378;2023-04-01T09:04:04;-2526.66;;;-146.10;100.00
12763;BME280;6445;52.490;13.378;2023-04-01T09:06:39;-2400.41;;;-146.10;100.00
12763;BME280;6445;52.490;13.378;2023-04-01T09:12:12;-3104.63;;;-146.10;100.00
12763;BME280;6445;52.490;13.378;2023-04-01T09:14:55;-3065.19;;;-146.10;100.00
12763;BME280;6445;52.490;13.378;2023-04-01T09:20:25;-9982.28;;;-146.10;100.00
12763;BME280;6445;52.490;13.378;2023-04-01T09:26:08;-10885.91;;;-146.10;100.00
12763;BME280;6445;52.490;13.378;2023-04-01T09:34:43;-12695.97;;;-146.10;100.00
12763;BME280;6445;52.490;13.378;2023-04-01T09:37:21;-12695.97;;;-146.10;100.00
12763;BME280;6445;52.490;13.378;2023-04-01T09:39:59;-12695.97;;;-146.10;100.00
12763;BME280;6445;52.490;13.378;2023-04-01T09:45:48;-12695.97;;;-146.10;100.00
12763;BME280;6445;52.490;13.378;2023-04-01T09:53:46;-12695.97;;;-146.10;100.00
12763;BME280;6445;52.490;13.378;2023-04-01T09:56:52;-12695.97;;;-146.10;100.00
12763;BME280;6445;52.490;13.378;2023-04-01T10:03:07;-12695.97;;;-146.10;100.00
12763;BME280;6445;52.490;13.378;2023-04-01T10:06:03;-12695.97;;;-146.10;100.00
12763;BME280;6445;52.490;13.378;2023-04-01T10:08:54;-12695.97;;;-146.10;100.00
12763;BME280;6445;52.490;13.378;2023-04-01T10:12:08;-12695.97;;;-146.10;100.00
12763;BME280;6445;52.490;13.378;2023-04-01T10:20:15;-12695.97;;;-146.10;100.00
12763;BME280;6445;52.490;13.378;2023-04-01T10:34:14;-12695.97;;;-146.10;100.00
12763;BME280;6445;52.490;13.378;2023-04-01T10:36:56;-12695.97;;;-146.10;100.00
12763;BME280;6445;52.490;13.378;2023-04-01T10:39:56;-12695.97;;;-146.10;100.00
12763;BME280;6445;52.490;13.378;2023-04-01T10:43:04;-12695.97;;;-146.10;100.00
12763;BME280;6445;52.490;13.378;2023-04-01T10:45:51;-12695.97;;;-146.10;100.00
12763;BME280;6445;52.490;13.378;2023-04-01T10:54:21;-12695.97;;;-146.10;100.00
12763;BME280;6445;52.490;13.378;2023-04-01T11:00:18;-12695.97;;;-146.10;100.00
12763;BME280;6445;52.490;13.378;2023-04-01T11:05:33;-12695.97;;;-146.10;100.00
12763;BME280;6445;52.490;13.378;2023-04-01T11:11:52;-12695.97;;;-146.10;100.00
12763;BME280;6445;52.490;13.378;2023-04-01T11:17:24;-12695.97;;;-146.10;100.00
12763;BME280;6445;52.490;13.378;2023-04-01T11:23:07;-12695.97;;;-146.10;100.00
12763;BME280;6445;52.490;13.378;2023-04-01T11:26:04;-12695.97;;;-146.10;100.00
12763;BME280;6445;52.490;13.378;2023-04-01T11:31:39;-12695.97;;;-146.10;100.00
12763;BME280;6445;52.490;13.378;2023-04-01T11:39:54;-12695.97;;;-146.10;100.00
12763;BME280;6445;52.490;13.378;2023-04-01T11:42:15;-12695.97;;;-146.10;100.00
12763;BME280;6445;52.490;13.378;2023-04-01T11:45:07;-12695.97;;;-146.10;100.00
12763;BME280;6445;52.490;13.378;2023-04-01T11:47:48;-12695.97;;;-146.10;100.00
12763;BME280;6445;52.490;13.378;2023-04-01T11:50:26;-12695.97;;;-146.10;100.00
12763;BME280;6445;52.490;13.378;2023-04-01T11:53:27;-12695.97;;;-146.10;100.00
12763;BME280;6445;52.490;13.378;2023-04-01T12:02:29;-12695.97;;;-146.10;100.00
12763;BME280;6445;52.490;13.378;2023-04-01T12:08:02;-12695.97;;;-146.10;100.00
12763;BME280;6445;52.490;13.378;2023-04-01T12:13:28;-12695.97;;;-146.10;100.00
12763;BME280;6445;52.490;13.378;2023-04-01T12:16:06;-12695.97;;;-146.10;100.00
12763;BME280;6445;52.490;13.378;2023-04-01T12:18:58;-12695.97;;;-146.10;100.00
12763;BME280;6445;52.490;13.378;2023-04-01T12:21:38;-12695.97;;;-146.10;100.00
12763;BME280;6445;52.490;13.378;2023-04-01T12:24:29;-12695.97;;;-146.10;100.00
12763;BME280;6445;52.490;13.378;2023-04-01T12:30:02;-12695.97;;;-146.10;100.00
12763;BME280;6445;52.490;13.378;2023-04-01T12:32:56;-12695.97;;;-146.10;100.00
12763;BME280;6445;52.490;13.378;2023-04-01T12:41:41;-12695.97;;;-146.10;100.00
12763;BME280;6445;52.490;13.378;2023-04-01T12:44:21;-12695.97;;;-146.10;100.00
12763;BME280;6445;52.490;13.378;2023-04-01T12:52:30;-12695.97;;;-146.10;100.00
12763;BME280;6445;52.490;13.378;2023-04-01T12:58:39;-12695.97;;;-146.10;100.00
12763;BME280;6445;52.490;13.378;2023-04-01T13:01:33;-12695.97;;;-146.10;100.00
12763;BME280;6445;52.490;13.378;2023-04-01T13:07:14;-12695.97;;;-146.10;100.00
12763;BME280;6445;52.490;13.378;2023-04-01T13:12:36;-12695.97;;;-146.10;100.00
12763;BME280;6445;52.490;13.378;2023-04-01T13:15:16;-12695.97;;;-146.10;100.00
12763;BME280;6445;52.490;13.378;2023-04-01T13:17:52;-12695.97;;;-146.10;100.00
12763;BME280;6445;52.490;13.378;2023-04-01T13:20:43;-12695.97;;;-146.10;100.00
12763;BME280;6445;52.490;13.378;2023-04-01T13:23:24;-12695.97;;;-146.10;100.00
12763;BME280;6445;52.490;13.378;2023-04-01T13:26:07;-12695.97;;;-146.10;100.00
12763;BME280;6445;52.490;13.378;2023-04-01T13:28:44;-12695.97;;;-146.10;100.00
12763;BME280;6445;52.490;13.378;2023-04-01T13:37:08;-12695.97;;;-146.10;100.00
12763;BME280;6445;52.490;13.378;2023-04-01T13:39:57;-12695.97;;;-146.10;100.00
12763;BME280;6445;52.490;13.378;2023-04-01T13:42:38;-12695.97;;;-146.10;100.00
12763;BME280;6445;52.490;13.378;2023-04-01T13:45:15;-12695.97;;;-146.10;100.00
12763;BME280;6445;52.490;13.378;2023-04-01T13:53:11;-12695.97;;;-146.10;100.00
12763;BME280;6445;52.490;13.378;2023-04-01T13:55:55;-12695.97;;;-146.10;100.00
12763;BME280;6445;52.490;13.378;2023-04-01T14:01:28;-12695.97;;;-146.10;100.00
12763;BME280;6445;52.490;13.378;2023-04-01T14:10:11;-12695.97;;;-146.10;100.00
12763;BME280;6445;52.490;13.378;2023-04-01T14:12:59;-12695.97;;;-146.10;100.00
12763;BME280;6445;52.490;13.378;2023-04-01T14:21:35;-12695.97;;;-146.10;100.00
12763;BME280;6445;52.490;13.378;2023-04-01T14:24:08;-12695.97;;;-146.10;100.00
12763;BME280;6445;52.490;13.378;2023-04-01T14:27:12;-12695.97;;;-146.10;100.00
12763;BME280;6445;52.490;13.378;2023-04-01T14:30:14;-12695.97;;;-146.10;100.00
12763;BME280;6445;52.490;13.378;2023-04-01T14:32:57;-12695.97;;;-146.10;100.00
12763;BME280;6445;52.490;13.378;2023-04-01T14:35:41;-12695.97;;;-146.10;100.00
12763;BME280;6445;52.490;13.378;2023-04-01T14:44:11;-12695.97;;;-146.10;100.00
12763;BME280;6445;52.490;13.378;2023-04-01T14:49:41;-12695.97;;;-146.10;100.00
12763;BME280;6445;52.490;13.378;2023-04-01T14:52:31;-12695.97;;;-146.10;100.00
12763;BME280;6445;52.490;13.378;2023-04-01T14:55:00;-12695.97;;;-146.10;100.00
12763;BME280;6445;52.490;13.378;2023-04-01T14:57:31;-12695.97;;;-146.10;100.00
12763;BME280;6445;52.490;13.378;2023-04-01T15:00:22;-12695.97;;;-146.10;100.00
12763;BME280;6445;52.490;13.378;2023-04-01T15:02:57;-12695.97;;;-146.10;100.00
12763;BME280;6445;52.490;13.378;2023-04-01T15:08:32;-12695.97;;;-146.10;100.00
12763;BME280;6445;52.490;13.378;2023-04-01T15:10:59;-12695.97;;;-146.10;100.00
12763;BME280;6445;52.490;13.378;2023-04-01T15:13:37;-12695.97;;;-146.10;100.00
12763;BME280;6445;52.490;13.378;2023-04-01T15:16:18;-12695.97;;;-146.10;100.00
12763;BME280;6445;52.490;13.378;2023-04-01T15:19:12;-12695.97;;;-146.10;100.00
12763;BME280;6445;52.490;13.378;2023-04-01T15:21:55;-12695.97;;;-146.10;100.00
12763;BME280;6445;52.490;13.378;2023-04-01T15:24:30;-12695.97;;;-146.10;100.00
12763;BME280;6445;52.490;13.378;2023-04-01T15:27:31;-12695.97;;;-146.10;100.00
12763;BME280;6445;52.490;13.378;2023-04-01T15:30:37;-12695.97;;;-146.10;100.00
12763;BME280;6445;52.490;13.378;2023-04-01T15:33:29;-12695.97;;;-146.10;100.00
12763;BME280;6445;52.490;13.378;2023-04-01T15:38:56;-12695.97;;;-146.10;100.00
12763;BME280;6445;52.490;13.378;2023-04-01T15:41:50;-12695.97;;;-146.10;100.00
12763;BME280;6445;52.490;13.378;2023-04-01T15:44:42;-12695.97;;;-146.10;100.00
12763;BME280;6445;52.490;13.378;2023-04-01T15:50:28;-12695.97;;;-146.10;100.00
12763;BME280;6445;52.490;13.378;2023-04-01T15:56:10;-12695.97;;;-146.10;100.00
12763;BME280;6445;52.490;13.378;2023-04-01T16:03:52;-12695.97;;;-146.10;100.00
12763;BME280;6445;52.490;13.378;2023-04-01T16:06:42;-12695.97;;;-146.10;100.00
12763;BME280;6445;52.490;13.378;2023-04-01T16:09:23;-12695.97;;;-146.10;100.00
12763;BME280;6445;52.490;13.378;2023-04-01T16:12:09;-12695.97;;;-146.10;100.00